Time;durP1;ratioP1;P1;durP2;ratioP2;P2;SDS_P1;SDS_P2;PMS_P1;PMS_P2;Temp;Humidity;BMP_temperature;BMP_pressure;BME280_temperature;BME280_humidity;BME280_pressure;Samples;Min_cycle;Max_cycle;Signal;HPM_P1;HPM_P2
2021/06/27 00:00:26;;;;;;;9.98;7.60;;;;;;;;;;5002124;28;20130;-63
2021/06/27 00:02:52;;;;;;;9.68;7.40;;;;;;;;;;5002378;28;20033;-62
2021/06/27 00:05:20;;;;;;;8.52;7.63;;;;;;;;;;5008127;28;20029;-62
2021/06/27 00:07:46;;;;;;;9.38;7.00;;;;;;;;;;4997251;28;20449;-62
2021/06/27 00:10:15;;;;;;;8.93;7.43;;;;;;;;;;5014645;28;20107;-62
2021/06/27 00:12:41;;;;;;;9.30;7.45;;;;;;;;;;5002513;28;20042;-62
2021/06/27 00:15:21;;;;;;;8.25;7.05;;;;;;;;;;5003532;28;20408;-63
2021/06/27 00:17:47;;;;;;;9.52;6.72;;;;;;;;;;4995947;28;20026;-62
2021/06/27 00:20:17;;;;;;;12.35;6.85;;;;;;;;;;4999774;28;20045;-62
2021/06/27 00:22:42;;;;;;;8.88;7.35;;;;;;;;;;4998073;28;20065;-62
2021/06/27 00:25:11;;;;;;;8.20;6.38;;;;;;;;;;5003581;28;20100;-63
2021/06/27 00:27:40;;;;;;;7.60;6.47;;;;;;;;;;5003899;28;20034;-62
2021/06/27 00:30:08;;;;;;;9.05;6.38;;;;;;;;;;5000639;28;20045;-62
2021/06/27 00:32:35;;;;;;;10.80;6.95;;;;;;;;;;5001958;28;20041;-62
2021/06/27 00:35:01;;;;;;;8.38;6.60;;;;;;;;;;5006673;28;20519;-62
2021/06/27 00:37:27;;;;;;;9.85;6.60;;;;;;;;;;4999957;28;20034;-63
2021/06/27 00:39:53;;;;;;;8.02;6.47;;;;;;;;;;5003691;28;20053;-62
2021/06/27 00:42:18;;;;;;;10.02;6.95;;;;;;;;;;4997325;28;20515;-62
2021/06/27 00:44:43;;;;;;;7.80;6.82;;;;;;;;;;5000699;28;20045;-62
2021/06/27 00:47:09;;;;;;;9.77;6.60;;;;;;;;;;5000313;28;20030;-63
2021/06/27 00:49:34;;;;;;;8.90;6.78;;;;;;;;;;5005730;28;20409;-62
2021/06/27 00:52:00;;;;;;;11.07;6.43;;;;;;;;;;5000809;28;20025;-63
2021/06/27 00:54:25;;;;;;;8.57;6.40;;;;;;;;;;5002044;28;20477;-63
2021/06/27 00:56:50;;;;;;;9.70;6.78;;;;;;;;;;5001559;28;20229;-62
2021/06/27 00:59:16;;;;;;;7.63;6.13;;;;;;;;;;4997514;28;20388;-62
2021/06/27 01:01:42;;;;;;;8.55;6.80;;;;;;;;;;5016007;28;20281;-62
2021/06/27 01:04:07;;;;;;;8.48;6.47;;;;;;;;;;4999791;28;20289;-62
2021/06/27 01:06:32;;;;;;;8.70;6.57;;;;;;;;;;5003437;28;20579;-62
2021/06/27 01:08:58;;;;;;;7.80;6.60;;;;;;;;;;4999686;28;20445;-62
2021/06/27 01:11:23;;;;;;;8.70;6.50;;;;;;;;;;4999548;28;20034;-62
2021/06/27 01:13:50;;;;;;;10.55;6.30;;;;;;;;;;5000839;28;20025;-62
2021/06/27 01:16:15;;;;;;;8.40;6.30;;;;;;;;;;5000773;28;20031;-62
2021/06/27 01:18:41;;;;;;;8.23;5.80;;;;;;;;;;5000819;28;20033;-62
2021/06/27 01:21:07;;;;;;;9.13;6.05;;;;;;;;;;4997397;28;20056;-62
2021/06/27 01:23:33;;;;;;;7.60;6.13;;;;;;;;;;5019417;28;20025;-62
2021/06/27 01:25:58;;;;;;;9.40;5.72;;;;;;;;;;5004187;28;20512;-62
2021/06/27 01:28:24;;;;;;;8.75;6.03;;;;;;;;;;5006443;28;20489;-62
2021/06/27 01:30:50;;;;;;;8.15;5.53;;;;;;;;;;4999598;28;20096;-62
2021/06/27 01:33:18;;;;;;;8.07;5.72;;;;;;;;;;5000491;28;20034;-62
2021/06/27 01:35:45;;;;;;;6.68;5.88;;;;;;;;;;4997998;28;20030;-61
2021/06/27 01:38:12;;;;;;;7.78;5.68;;;;;;;;;;4997587;28;20121;-61
2021/06/27 01:40:38;;;;;;;9.20;5.90;;;;;;;;;;5002826;28;20056;-61
2021/06/27 01:43:10;;;;;;;6.45;5.35;;;;;;;;;;5004331;28;20156;-62
2021/06/27 01:45:39;;;;;;;7.93;6.10;;;;;;;;;;5000796;28;20113;-61
2021/06/27 01:48:07;;;;;;;6.60;5.70;;;;;;;;;;5003287;28;20562;-61
2021/06/27 01:50:33;;;;;;;9.85;6.03;;;;;;;;;;5003260;28;20475;-62
2021/06/27 01:52:59;;;;;;;6.57;5.88;;;;;;;;;;4989510;28;20037;-61
2021/06/27 01:55:26;;;;;;;7.63;5.97;;;;;;;;;;5002027;28;20041;-61
2021/06/27 01:57:53;;;;;;;8.27;6.32;;;;;;;;;;4996988;28;20033;-61
2021/06/27 02:00:20;;;;;;;9.50;6.22;;;;;;;;;;4994282;28;20026;-61
2021/06/27 02:02:45;;;;;;;8.82;6.68;;;;;;;;;;5001228;28;20500;-61
2021/06/27 02:05:12;;;;;;;9.32;5.95;;;;;;;;;;5006458;28;20027;-61
2021/06/27 02:07:39;;;;;;;11.70;6.63;;;;;;;;;;5005070;28;20057;-63
2021/06/27 02:10:18;;;;;;;6.50;5.82;;;;;;;;;;4997237;28;20038;-62
2021/06/27 02:12:44;;;;;;;8.23;6.28;;;;;;;;;;5001864;28;20056;-63
2021/06/27 02:15:10;;;;;;;10.27;6.35;;;;;;;;;;5004629;28;20034;-61
2021/06/27 02:17:37;;;;;;;8.55;5.90;;;;;;;;;;5011464;28;20029;-60
2021/06/27 02:20:05;;;;;;;7.63;5.57;;;;;;;;;;5004478;28;20108;-61
2021/06/27 02:22:30;;;;;;;8.27;5.85;;;;;;;;;;4996333;28;20025;-61
2021/06/27 02:24:56;;;;;;;7.50;5.60;;;;;;;;;;5016131;28;20037;-61
2021/06/27 02:27:21;;;;;;;6.50;5.55;;;;;;;;;;5003122;28;20041;-61
2021/06/27 02:29:46;;;;;;;8.10;5.72;;;;;;;;;;5001683;28;20045;-61
2021/06/27 02:32:12;;;;;;;8.95;6.10;;;;;;;;;;5006802;28;20029;-61
2021/06/27 02:34:37;;;;;;;7.55;6.18;;;;;;;;;;5009412;28;20025;-61
2021/06/27 02:37:03;;;;;;;5.95;5.28;;;;;;;;;;5005236;28;20425;-61
2021/06/27 02:39:28;;;;;;;6.78;6.03;;;;;;;;;;5012927;28;20058;-61
2021/06/27 02:41:54;;;;;;;7.65;6.10;;;;;;;;;;5009756;28;20342;-61
2021/06/27 02:44:20;;;;;;;6.88;5.88;;;;;;;;;;5001579;28;20531;-61
2021/06/27 02:46:45;;;;;;;8.48;6.30;;;;;;;;;;5005459;28;20485;-61
2021/06/27 02:49:11;;;;;;;11.75;6.70;;;;;;;;;;5003031;28;20563;-61
2021/06/27 02:51:36;;;;;;;8.60;5.97;;;;;;;;;;5002317;28;20167;-62
2021/06/27 02:54:03;;;;;;;7.32;6.05;;;;;;;;;;5010014;28;20025;-61
2021/06/27 02:56:28;;;;;;;8.20;6.10;;;;;;;;;;5007388;28;20029;-61
2021/06/27 02:58:54;;;;;;;7.15;5.88;;;;;;;;;;5002089;28;21807;-61
2021/06/27 03:01:20;;;;;;;7.70;5.80;;;;;;;;;;5001979;28;20339;-61
2021/06/27 03:03:50;;;;;;;8.40;6.22;;;;;;;;;;5002755;28;20030;-62
2021/06/27 03:06:17;;;;;;;7.22;5.25;;;;;;;;;;5005871;28;20042;-61
2021/06/27 03:08:42;;;;;;;8.68;6.07;;;;;;;;;;5007321;28;20021;-61
2021/06/27 03:11:08;;;;;;;6.38;5.40;;;;;;;;;;5006807;28;20404;-61
2021/06/27 03:13:35;;;;;;;7.28;5.70;;;;;;;;;;5011239;28;20101;-61
2021/06/27 03:16:03;;;;;;;7.03;5.65;;;;;;;;;;5002576;28;20575;-61
2021/06/27 03:18:29;;;;;;;8.00;6.10;;;;;;;;;;5004216;28;20524;-62
2021/06/27 03:20:54;;;;;;;6.32;5.20;;;;;;;;;;5004171;28;20030;-61
2021/06/27 03:23:19;;;;;;;7.53;5.68;;;;;;;;;;5008468;28;20045;-61
2021/06/27 03:25:45;;;;;;;8.02;5.60;;;;;;;;;;5009155;28;20041;-61
2021/06/27 03:28:10;;;;;;;6.40;5.38;;;;;;;;;;5002540;28;20177;-61
2021/06/27 03:30:36;;;;;;;7.68;6.18;;;;;;;;;;5003593;28;20026;-61
2021/06/27 03:33:02;;;;;;;7.75;5.65;;;;;;;;;;5007474;28;20033;-61
2021/06/27 03:35:28;;;;;;;6.85;5.40;;;;;;;;;;5002641;28;20037;-61
2021/06/27 03:38:13;;;;;;;9.18;6.15;;;;;;;;;;5004906;28;20030;-61
2021/06/27 03:40:41;;;;;;;8.50;5.75;;;;;;;;;;5008492;28;20132;-60
2021/06/27 03:43:06;;;;;;;6.53;5.72;;;;;;;;;;5013335;28;20441;-61
2021/06/27 03:45:32;;;;;;;7.53;5.88;;;;;;;;;;5001866;28;20044;-61
2021/06/27 03:47:57;;;;;;;6.97;5.28;;;;;;;;;;5000177;28;20082;-61
2021/06/27 03:50:23;;;;;;;6.45;5.68;;;;;;;;;;5004843;28;20400;-61
2021/06/27 03:52:49;;;;;;;7.70;5.13;;;;;;;;;;5019774;28;20030;-61
2021/06/27 03:55:15;;;;;;;6.80;5.43;;;;;;;;;;4998915;28;20441;-61
2021/06/27 03:57:41;;;;;;;7.45;5.28;;;;;;;;;;4999687;28;20053;-61
2021/06/27 04:00:08;;;;;;;6.60;5.70;;;;;;;;;;4999811;28;20272;-61
2021/06/27 04:02:34;;;;;;;7.55;5.93;;;;;;;;;;5005154;28;20029;-61
2021/06/27 04:04:59;;;;;;;8.07;5.90;;;;;;;;;;5005925;28;20030;-61
2021/06/27 04:07:24;;;;;;;9.10;6.15;;;;;;;;;;4996006;28;20038;-61
2021/06/27 04:09:50;;;;;;;7.95;6.38;;;;;;;;;;4998109;28;20034;-61
2021/06/27 04:12:15;;;;;;;8.38;6.72;;;;;;;;;;5017612;28;20448;-61
2021/06/27 04:14:41;;;;;;;8.35;6.07;;;;;;;;;;4999012;28;20125;-61
2021/06/27 04:17:06;;;;;;;8.05;6.22;;;;;;;;;;4998000;28;20030;-61
2021/06/27 04:19:32;;;;;;;7.88;6.22;;;;;;;;;;5003675;28;20424;-61
2021/06/27 04:21:57;;;;;;;9.07;6.85;;;;;;;;;;4996758;28;20026;-61
2021/06/27 04:24:23;;;;;;;8.85;6.70;;;;;;;;;;4999780;28;20030;-61
2021/06/27 04:26:48;;;;;;;10.27;6.88;;;;;;;;;;4999061;28;20451;-61
2021/06/27 04:29:16;;;;;;;11.00;7.10;;;;;;;;;;4998446;28;20036;-61
2021/06/27 04:31:43;;;;;;;10.15;6.70;;;;;;;;;;5003965;28;20030;-61
2021/06/27 04:34:10;;;;;;;10.43;7.13;;;;;;;;;;4997540;28;20080;-62
2021/06/27 04:36:35;;;;;;;10.43;7.70;;;;;;;;;;5002800;28;20060;-61
2021/06/27 04:39:01;;;;;;;10.18;8.60;;;;;;;;;;4999569;28;20034;-61
2021/06/27 04:41:27;;;;;;;10.75;8.82;;;;;;;;;;4998691;28;20036;-62
2021/06/27 04:43:56;;;;;;;13.45;9.30;;;;;;;;;;4999281;28;20038;-61
2021/06/27 04:46:21;;;;;;;10.65;8.80;;;;;;;;;;4999518;28;20025;-61
2021/06/27 04:48:46;;;;;;;12.43;9.50;;;;;;;;;;5000542;28;20053;-61
2021/06/27 04:51:12;;;;;;;14.63;9.90;;;;;;;;;;5003929;28;20381;-62
2021/06/27 04:53:37;;;;;;;12.73;8.95;;;;;;;;;;5006543;28;20122;-61
2021/06/27 04:56:03;;;;;;;12.02;9.00;;;;;;;;;;5005786;28;20021;-61
2021/06/27 04:58:28;;;;;;;12.88;10.13;;;;;;;;;;5000883;28;20135;-61
2021/06/27 05:00:54;;;;;;;10.98;9.18;;;;;;;;;;5000066;28;20026;-62
2021/06/27 05:03:19;;;;;;;13.95;9.95;;;;;;;;;;4998373;28;20064;-62
2021/06/27 05:05:46;;;;;;;11.93;9.50;;;;;;;;;;5002984;28;20030;-61
2021/06/27 05:08:12;;;;;;;14.68;10.18;;;;;;;;;;5001900;28;20523;-60
2021/06/27 05:10:37;;;;;;;13.50;10.98;;;;;;;;;;5001095;28;20026;-61
2021/06/27 05:13:03;;;;;;;14.10;11.55;;;;;;;;;;5006284;28;20029;-61
2021/06/27 05:15:28;;;;;;;14.93;11.23;;;;;;;;;;5006306;28;20056;-61
2021/06/27 05:17:54;;;;;;;15.50;11.95;;;;;;;;;;5004870;28;20056;-61
2021/06/27 05:20:19;;;;;;;17.02;11.98;;;;;;;;;;4999644;28;20038;-61
2021/06/27 05:22:45;;;;;;;15.35;11.30;;;;;;;;;;4997570;28;20030;-61
2021/06/27 05:25:10;;;;;;;14.80;11.55;;;;;;;;;;5002424;28;20474;-61
2021/06/27 05:27:36;;;;;;;14.48;10.63;;;;;;;;;;5000409;28;20030;-61
2021/06/27 05:30:06;;;;;;;17.65;11.10;;;;;;;;;;4995631;28;20081;-61
2021/06/27 05:32:31;;;;;;;16.23;11.00;;;;;;;;;;5000050;28;20052;-61
2021/06/27 05:34:57;;;;;;;18.52;11.88;;;;;;;;;;5002439;28;20026;-61
2021/06/27 05:37:23;;;;;;;13.80;10.85;;;;;;;;;;4993301;28;20026;-62
2021/06/27 05:39:48;;;;;;;13.27;10.88;;;;;;;;;;5000739;28;20117;-62
2021/06/27 05:42:14;;;;;;;14.85;11.30;;;;;;;;;;4999905;28;20034;-63
2021/06/27 05:44:39;;;;;;;13.52;10.90;;;;;;;;;;5001422;28;20038;-62
2021/06/27 05:47:05;;;;;;;15.25;11.18;;;;;;;;;;5001171;28;20026;-62
2021/06/27 05:49:30;;;;;;;15.05;11.35;;;;;;;;;;5003523;28;20155;-63
2021/06/27 05:51:56;;;;;;;14.35;11.18;;;;;;;;;;5006817;28;20026;-62
2021/06/27 05:54:21;;;;;;;14.05;10.98;;;;;;;;;;4999537;28;20080;-62
2021/06/27 05:56:46;;;;;;;12.70;10.88;;;;;;;;;;4998949;28;20041;-63
2021/06/27 05:59:12;;;;;;;13.27;10.57;;;;;;;;;;4997425;28;20027;-62
2021/06/27 06:01:37;;;;;;;16.90;11.68;;;;;;;;;;5006220;28;20045;-64
2021/06/27 06:04:03;;;;;;;14.10;11.10;;;;;;;;;;5006539;28;20037;-63
2021/06/27 06:06:28;;;;;;;15.77;10.68;;;;;;;;;;4996476;28;20030;-62
2021/06/27 06:08:54;;;;;;;14.38;10.45;;;;;;;;;;4999237;28;20107;-62
2021/06/27 06:11:22;;;;;;;13.65;10.48;;;;;;;;;;5005217;28;20515;-62
2021/06/27 06:13:47;;;;;;;13.85;11.18;;;;;;;;;;4995123;28;20041;-62
2021/06/27 06:16:13;;;;;;;13.48;10.63;;;;;;;;;;5001703;28;20395;-62
2021/06/27 06:18:43;;;;;;;14.68;10.57;;;;;;;;;;4998545;28;20122;-62
2021/06/27 06:21:10;;;;;;;15.55;10.32;;;;;;;;;;5018517;28;20048;-62
2021/06/27 06:23:35;;;;;;;12.52;9.90;;;;;;;;;;4999066;28;20025;-62
2021/06/27 06:26:01;;;;;;;11.32;9.98;;;;;;;;;;5016811;28;20033;-62
2021/06/27 06:28:26;;;;;;;11.60;9.63;;;;;;;;;;5003665;28;20107;-62
2021/06/27 06:30:52;;;;;;;14.10;10.15;;;;;;;;;;5004693;28;20123;-62
2021/06/27 06:33:17;;;;;;;11.50;9.55;;;;;;;;;;5005887;28;20026;-62
2021/06/27 06:35:43;;;;;;;10.40;8.93;;;;;;;;;;4999578;28;20022;-62
2021/06/27 06:38:10;;;;;;;14.70;9.75;;;;;;;;;;5001946;28;20026;-62
2021/06/27 06:40:37;;;;;;;9.60;8.40;;;;;;;;;;5005730;28;20061;-62
2021/06/27 06:43:04;;;;;;;15.05;10.10;;;;;;;;;;5002194;28;20054;-63
2021/06/27 06:45:30;;;;;;;11.82;8.85;;;;;;;;;;4995144;28;20030;-62
2021/06/27 06:47:55;;;;;;;13.05;9.25;;;;;;;;;;5000895;28;20497;-62
2021/06/27 06:50:22;;;;;;;12.95;9.88;;;;;;;;;;5004331;28;20044;-62
2021/06/27 06:52:48;;;;;;;10.82;8.90;;;;;;;;;;5003579;28;20108;-61
2021/06/27 06:55:14;;;;;;;13.15;8.90;;;;;;;;;;5001576;28;20536;-62
2021/06/27 06:57:39;;;;;;;10.02;8.00;;;;;;;;;;4998959;28;20026;-62
2021/06/27 07:00:07;;;;;;;10.38;8.27;;;;;;;;;;5001239;28;20554;-61
2021/06/27 07:02:32;;;;;;;7.35;6.53;;;;;;;;;;5004658;28;20026;-61
2021/06/27 07:04:58;;;;;;;6.07;5.47;;;;;;;;;;5003807;28;20026;-60
2021/06/27 07:07:23;;;;;;;7.15;6.13;;;;;;;;;;4995884;28;20058;-61
2021/06/27 07:09:48;;;;;;;6.70;6.00;;;;;;;;;;5000778;28;20034;-61
2021/06/27 07:12:14;;;;;;;7.97;5.78;;;;;;;;;;4998695;28;20034;-61
2021/06/27 07:14:40;;;;;;;7.25;6.40;;;;;;;;;;5004246;28;20560;-61
2021/06/27 07:17:05;;;;;;;9.30;5.97;;;;;;;;;;5003768;28;20025;-61
2021/06/27 07:19:31;;;;;;;8.55;6.53;;;;;;;;;;5007180;28;20037;-61
2021/06/27 07:21:56;;;;;;;7.72;6.40;;;;;;;;;;5005538;28;20457;-60
2021/06/27 07:24:22;;;;;;;8.77;6.35;;;;;;;;;;5003795;28;20026;-60
2021/06/27 07:26:48;;;;;;;8.63;6.68;;;;;;;;;;5001988;28;20601;-60
2021/06/27 07:29:13;;;;;;;7.35;6.50;;;;;;;;;;5003757;28;20514;-60
2021/06/27 07:31:39;;;;;;;8.88;6.93;;;;;;;;;;5003519;28;20065;-60
2021/06/27 07:34:04;;;;;;;8.70;6.60;;;;;;;;;;5001863;28;20029;-61
2021/06/27 07:36:29;;;;;;;7.45;6.75;;;;;;;;;;5001290;28;20546;-61
2021/06/27 07:38:55;;;;;;;7.35;6.53;;;;;;;;;;5002925;28;20088;-60
2021/06/27 07:41:20;;;;;;;7.15;6.38;;;;;;;;;;5009997;28;20242;-60
2021/06/27 07:43:50;;;;;;;6.82;6.13;;;;;;;;;;5003477;28;20037;-60
2021/06/27 07:46:15;;;;;;;;;;;;;;;;;;5006299;28;20042;-60
2021/06/27 07:48:41;;;;;;;7.10;5.88;;;;;;;;;;5002605;28;19924;-60
2021/06/27 07:51:06;;;;;;;6.32;5.72;;;;;;;;;;4998482;28;20077;-60
2021/06/27 07:53:32;;;;;;;8.48;6.30;;;;;;;;;;4998282;28;20036;-61
2021/06/27 07:55:57;;;;;;;7.57;6.28;;;;;;;;;;5001505;28;20492;-61
2021/06/27 07:58:23;;;;;;;6.40;5.80;;;;;;;;;;5007571;28;20032;-62
2021/06/27 08:00:48;;;;;;;5.85;4.60;;;;;;;;;;4999513;28;20076;-60
2021/06/27 08:03:13;;;;;;;5.80;5.20;;;;;;;;;;5000938;28;20053;-62
2021/06/27 08:05:39;;;;;;;6.97;5.60;;;;;;;;;;4999564;28;20294;-60
2021/06/27 08:08:04;;;;;;;7.32;5.80;;;;;;;;;;5006495;28;20057;-61
2021/06/27 08:10:30;;;;;;;9.55;5.78;;;;;;;;;;5003651;28;20652;-62
2021/06/27 08:12:55;;;;;;;8.77;5.07;;;;;;;;;;5001615;28;20033;-59
2021/06/27 08:15:21;;;;;;;4.93;4.15;;;;;;;;;;5006379;28;20076;-62
2021/06/27 08:17:48;;;;;;;3.30;3.00;;;;;;;;;;5020653;28;20045;-61
2021/06/27 08:20:15;;;;;;;5.45;3.05;;;;;;;;;;5005079;28;20030;-61
2021/06/27 08:22:40;;;;;;;2.60;2.40;;;;;;;;;;5019465;28;20591;-61
2021/06/27 08:25:06;;;;;;;3.50;3.00;;;;;;;;;;5002588;28;20108;-61
2021/06/27 08:27:32;;;;;;;3.00;2.70;;;;;;;;;;5005877;28;20393;-61
2021/06/27 08:29:57;;;;;;;2.90;2.42;;;;;;;;;;5002134;28;20045;-61
2021/06/27 08:32:23;;;;;;;3.65;2.70;;;;;;;;;;5000199;28;20030;-61
2021/06/27 08:34:48;;;;;;;3.75;3.35;;;;;;;;;;5000891;28;20045;-61
2021/06/27 08:37:14;;;;;;;3.47;2.88;;;;;;;;;;5008939;28;20045;-61
2021/06/27 08:39:39;;;;;;;2.88;2.50;;;;;;;;;;4993029;28;20030;-62
2021/06/27 08:42:05;;;;;;;2.70;2.50;;;;;;;;;;5004264;28;20033;-62
2021/06/27 08:44:34;;;;;;;4.00;2.78;;;;;;;;;;5000200;28;20033;-62
2021/06/27 08:47:02;;;;;;;4.20;2.60;;;;;;;;;;5007096;28;20083;-62
2021/06/27 08:49:28;;;;;;;2.97;2.77;;;;;;;;;;5000866;28;20076;-62
2021/06/27 08:51:56;;;;;;;3.10;2.80;;;;;;;;;;5001727;28;20531;-62
2021/06/27 08:54:22;;;;;;;2.80;2.60;;;;;;;;;;4999685;28;20015;-62
2021/06/27 08:56:47;;;;;;;2.70;2.50;;;;;;;;;;5010194;28;20053;-62
2021/06/27 08:59:13;;;;;;;3.65;3.20;;;;;;;;;;5000328;28;20057;-62
2021/06/27 09:01:38;;;;;;;3.50;3.20;;;;;;;;;;5004989;28;20021;-63
2021/06/27 09:04:04;;;;;;;3.28;2.80;;;;;;;;;;4999882;28;20237;-63
2021/06/27 09:06:37;;;;;;;2.85;2.65;;;;;;;;;;4998935;28;20041;-62
2021/06/27 09:09:22;;;;;;;3.85;2.70;;;;;;;;;;4999975;28;20100;-63
2021/06/27 09:12:01;;;;;;;4.03;2.88;;;;;;;;;;5006191;28;20554;-62
2021/06/27 09:14:38;;;;;;;3.38;2.83;;;;;;;;;;5007842;28;20034;-63
2021/06/27 09:17:18;;;;;;;2.85;2.50;;;;;;;;;;4995980;28;21359;-63
2021/06/27 09:19:57;;;;;;;2.85;2.65;;;;;;;;;;5002184;28;20507;-63
2021/06/27 09:22:26;;;;;;;3.27;2.97;;;;;;;;;;4998884;28;20053;-64
2021/06/27 09:24:53;;;;;;;4.05;2.53;;;;;;;;;;5000501;28;20030;-64
2021/06/27 09:27:24;;;;;;;3.05;2.75;;;;;;;;;;5001171;28;20025;-64
2021/06/27 09:29:52;;;;;;;3.05;2.85;;;;;;;;;;4994888;28;20041;-64
2021/06/27 09:32:23;;;;;;;2.58;2.35;;;;;;;;;;4995058;28;20559;-64
2021/06/27 09:34:49;;;;;;;2.92;2.63;;;;;;;;;;5001265;28;20061;-63
2021/06/27 09:37:15;;;;;;;4.50;2.80;;;;;;;;;;4997896;28;20033;-64
2021/06/27 09:39:55;;;;;;;3.70;2.70;;;;;;;;;;4998542;28;20030;-64
2021/06/27 09:42:21;;;;;;;2.63;2.40;;;;;;;;;;4997416;28;20065;-64
2021/06/27 09:45:05;;;;;;;2.95;2.65;;;;;;;;;;4999860;28;20033;-64
2021/06/27 09:47:30;;;;;;;4.18;2.92;;;;;;;;;;5000652;28;20065;-64
2021/06/27 09:49:56;;;;;;;5.43;3.30;;;;;;;;;;5003658;28;20120;-64
2021/06/27 09:52:39;;;;;;;3.88;3.33;;;;;;;;;;5005418;28;20018;-65
2021/06/27 09:55:09;;;;;;;3.28;2.97;;;;;;;;;;4996087;28;20026;-64
2021/06/27 09:57:36;;;;;;;3.17;2.90;;;;;;;;;;4996958;28;20026;-63
2021/06/27 10:00:21;;;;;;;3.67;2.90;;;;;;;;;;5001006;28;20053;-65
2021/06/27 10:02:59;;;;;;;3.05;2.85;;;;;;;;;;4995782;28;20022;-63
2021/06/27 10:05:25;;;;;;;3.72;2.58;;;;;;;;;;5003286;28;20125;-65
2021/06/27 10:07:50;;;;;;;3.30;2.90;;;;;;;;;;5003752;28;20164;-64
2021/06/27 10:10:19;;;;;;;3.05;2.75;;;;;;;;;;5003386;28;20029;-64
2021/06/27 10:12:44;;;;;;;3.38;2.75;;;;;;;;;;4999101;28;20037;-64
2021/06/27 10:15:12;;;;;;;3.33;2.78;;;;;;;;;;4998722;28;20034;-65
2021/06/27 10:17:37;;;;;;;4.13;3.13;;;;;;;;;;5005801;28;20164;-64
2021/06/27 10:20:04;;;;;;;2.88;2.60;;;;;;;;;;4999893;28;20183;-65
2021/06/27 10:22:31;;;;;;;5.70;3.00;;;;;;;;;;5011766;28;20065;-62
2021/06/27 10:24:57;;;;;;;2.97;2.78;;;;;;;;;;5001260;28;20038;-62
2021/06/27 10:27:24;;;;;;;3.00;2.80;;;;;;;;;;5021117;28;20033;-62
2021/06/27 10:29:50;;;;;;;3.00;2.70;;;;;;;;;;5004820;28;20036;-62
2021/06/27 10:32:17;;;;;;;4.00;3.60;;;;;;;;;;4999321;28;20309;-62
2021/06/27 10:34:42;;;;;;;3.55;2.53;;;;;;;;;;5002537;28;20022;-61
2021/06/27 10:37:12;;;;;;;3.45;3.17;;;;;;;;;;5001718;28;20630;-62
2021/06/27 10:39:38;;;;;;;3.03;2.60;;;;;;;;;;5010414;28;20050;-62
2021/06/27 10:42:06;;;;;;;3.30;3.00;;;;;;;;;;5001693;28;20376;-62
2021/06/27 10:44:38;;;;;;;2.60;2.40;;;;;;;;;;4999371;28;20034;-62
2021/06/27 10:47:04;;;;;;;2.70;2.50;;;;;;;;;;4999049;28;20129;-63
2021/06/27 10:49:32;;;;;;;3.58;2.60;;;;;;;;;;5004654;28;20441;-62
2021/06/27 10:52:01;;;;;;;;;;;;;;;;;;5005958;28;20048;-62
2021/06/27 10:54:28;;;;;;;3.33;2.30;;;;;;;;;;5012723;28;19913;-63
2021/06/27 10:56:59;;;;;;;2.65;2.45;;;;;;;;;;5004005;28;20133;-61
2021/06/27 10:59:47;;;;;;;2.53;2.33;;;;;;;;;;5004295;28;20249;-63
2021/06/27 11:02:14;;;;;;;2.70;2.47;;;;;;;;;;5008561;28;20057;-63
2021/06/27 11:04:40;;;;;;;2.70;2.50;;;;;;;;;;5006970;28;20029;-63
2021/06/27 11:07:05;;;;;;;2.30;2.03;;;;;;;;;;5007033;28;20029;-63
2021/06/27 11:09:31;;;;;;;2.60;2.40;;;;;;;;;;5001871;28;20027;-63
2021/06/27 11:11:58;;;;;;;2.65;2.45;;;;;;;;;;5020804;28;20045;-63
2021/06/27 11:14:23;;;;;;;3.05;2.30;;;;;;;;;;5003673;28;20033;-63
2021/06/27 11:16:54;;;;;;;2.60;2.40;;;;;;;;;;5001432;28;20041;-62
2021/06/27 11:19:28;;;;;;;2.53;2.33;;;;;;;;;;5009851;28;20061;-64
2021/06/27 11:22:13;;;;;;;3.10;2.60;;;;;;;;;;4997950;28;20108;-64
2021/06/27 11:24:39;;;;;;;3.55;2.28;;;;;;;;;;5007057;28;20018;-65
2021/06/27 11:27:05;;;;;;;5.95;5.40;;;;;;;;;;5001081;28;20057;-64
2021/06/27 11:29:30;;;;;;;7.80;6.28;;;;;;;;;;5003630;28;20037;-64
2021/06/27 11:32:15;;;;;;;34.08;19.13;;;;;;;;;;5001854;28;20026;-65
2021/06/27 11:34:57;;;;;;;21.38;11.65;;;;;;;;;;5006815;28;20033;-63
2021/06/27 11:37:23;;;;;;;3.95;2.78;;;;;;;;;;5022881;28;20572;-63
2021/06/27 11:39:55;;;;;;;4.45;3.17;;;;;;;;;;4995332;28;20113;-64
2021/06/27 11:42:27;;;;;;;8.23;7.45;;;;;;;;;;5006479;28;20030;-64
2021/06/27 11:45:16;;;;;;;2.75;2.33;;;;;;;;;;5008172;28;20400;-64
2021/06/27 11:47:51;;;;;;;3.00;2.70;;;;;;;;;;5020277;28;20033;-65
2021/06/27 11:50:18;;;;;;;3.95;2.83;;;;;;;;;;5003008;28;20040;-63
2021/06/27 11:52:48;;;;;;;3.60;2.70;;;;;;;;;;5003877;28;20374;-63
2021/06/27 11:55:14;;;;;;;4.78;2.38;;;;;;;;;;5000843;28;20105;-64
2021/06/27 11:57:41;;;;;;;4.07;2.55;;;;;;;;;;5004560;28;20113;-64
2021/06/27 12:00:08;;;;;;;2.65;1.98;;;;;;;;;;5001802;28;20029;-64
2021/06/27 12:02:36;;;;;;;2.53;2.28;;;;;;;;;;5005678;28;20033;-63
2021/06/27 12:05:07;;;;;;;2.80;1.90;;;;;;;;;;4997757;28;20056;-63
2021/06/27 12:07:39;;;;;;;1.85;1.75;;;;;;;;;;5004164;28;20132;-64
2021/06/27 12:10:19;;;;;;;1.80;1.70;;;;;;;;;;5004133;28;20112;-64
2021/06/27 12:12:52;;;;;;;2.22;2.03;;;;;;;;;;4997051;28;20077;-64
2021/06/27 12:15:17;;;;;;;2.92;1.83;;;;;;;;;;5005161;28;20038;-65
2021/06/27 12:18:05;;;;;;;2.58;2.38;;;;;;;;;;5002767;28;20396;-63
2021/06/27 12:20:37;;;;;;;2.27;2.03;;;;;;;;;;4996727;28;20144;-64
2021/06/27 12:23:08;;;;;;;2.22;2.10;;;;;;;;;;4998234;28;20026;-65
2021/06/27 12:25:50;;;;;;;2.13;1.95;;;;;;;;;;5005752;28;20053;-64
2021/06/27 12:28:40;;;;;;;2.30;2.10;;;;;;;;;;5017831;28;20084;-66
2021/06/27 12:31:08;;;;;;;2.58;2.38;;;;;;;;;;5018685;28;20022;-65
2021/06/27 12:33:37;;;;;;;2.90;2.53;;;;;;;;;;5003064;28;20407;-66
2021/06/27 12:36:27;;;;;;;2.30;2.10;;;;;;;;;;5003977;28;20042;-66
2021/06/27 12:38:56;;;;;;;3.22;2.03;;;;;;;;;;4999876;28;20472;-65
2021/06/27 12:41:27;;;;;;;2.03;1.90;;;;;;;;;;5000761;28;20041;-65
2021/06/27 12:44:00;;;;;;;2.45;2.13;;;;;;;;;;5007600;28;20381;-65
2021/06/27 12:46:27;;;;;;;2.25;2.03;;;;;;;;;;5002683;28;20530;-63
2021/06/27 12:48:59;;;;;;;2.67;1.95;;;;;;;;;;5001922;28;20119;-64
2021/06/27 12:51:35;;;;;;;2.42;2.22;;;;;;;;;;5006263;28;20025;-65
2021/06/27 12:54:12;;;;;;;2.00;1.90;;;;;;;;;;5002907;28;20044;-64
2021/06/27 12:57:02;;;;;;;2.38;2.17;;;;;;;;;;5000477;28;20049;-64
2021/06/27 12:59:37;;;;;;;2.17;1.98;;;;;;;;;;4995179;28;20046;-63
2021/06/27 13:02:08;;;;;;;2.75;2.10;;;;;;;;;;4997314;28;20026;-64
2021/06/27 13:04:40;;;;;;;2.47;1.85;;;;;;;;;;5005486;28;20508;-64
2021/06/27 13:07:10;;;;;;;2.88;2.17;;;;;;;;;;5004409;28;20500;-64
2021/06/27 13:09:55;;;;;;;3.78;2.00;;;;;;;;;;5001789;28;20040;-64
2021/06/27 13:12:22;;;;;;;2.28;2.08;;;;;;;;;;5002520;28;20042;-64
2021/06/27 13:14:51;;;;;;;2.30;2.10;;;;;;;;;;5002225;28;20077;-65
2021/06/27 13:17:21;;;;;;;2.47;2.20;;;;;;;;;;5003632;28;20428;-64
2021/06/27 13:20:11;;;;;;;2.70;2.10;;;;;;;;;;4999043;28;20030;-64
2021/06/27 13:22:53;;;;;;;2.72;2.50;;;;;;;;;;4998991;28;20062;-64
2021/06/27 13:25:34;;;;;;;2.88;2.60;;;;;;;;;;4999486;28;20026;-64
2021/06/27 13:28:00;;;;;;;2.50;2.30;;;;;;;;;;4996101;28;20034;-64
2021/06/27 13:30:26;;;;;;;2.60;2.40;;;;;;;;;;4999280;28;20057;-64
2021/06/27 13:33:12;;;;;;;4.82;2.35;;;;;;;;;;5007154;28;20115;-63
2021/06/27 13:35:40;;;;;;;2.33;2.20;;;;;;;;;;5007633;28;20042;-64
2021/06/27 13:38:08;;;;;;;2.85;2.38;;;;;;;;;;5005375;28;20499;-64
2021/06/27 13:40:35;;;;;;;2.90;2.10;;;;;;;;;;5001463;28;20108;-65
2021/06/27 13:43:01;;;;;;;2.45;2.20;;;;;;;;;;5001264;28;20084;-65
2021/06/27 13:45:30;;;;;;;3.33;2.22;;;;;;;;;;5000062;28;20026;-65
2021/06/27 13:47:55;;;;;;;;;;;;;;;;;;5001572;28;20034;-65
2021/06/27 13:50:23;;;;;;;2.03;1.80;;;;;;;;;;5003800;28;20005;-64
2021/06/27 13:52:50;;;;;;;2.40;2.20;;;;;;;;;;5016916;28;20064;-64
2021/06/27 13:55:16;;;;;;;2.22;2.03;;;;;;;;;;4994368;28;20026;-64
2021/06/27 13:57:43;;;;;;;2.35;2.20;;;;;;;;;;4999843;28;20104;-65
2021/06/27 14:00:10;;;;;;;2.53;2.10;;;;;;;;;;4998769;28;20396;-65
2021/06/27 14:02:35;;;;;;;4.80;2.58;;;;;;;;;;5001493;28;20030;-65
2021/06/27 14:05:02;;;;;;;3.20;2.50;;;;;;;;;;5004190;28;20066;-65
2021/06/27 14:07:28;;;;;;;2.63;2.42;;;;;;;;;;5004792;28;20141;-65
2021/06/27 14:09:53;;;;;;;2.60;2.40;;;;;;;;;;5007295;28;20041;-65
2021/06/27 14:12:19;;;;;;;2.40;2.20;;;;;;;;;;5009314;28;20036;-63
2021/06/27 14:14:44;;;;;;;2.60;2.40;;;;;;;;;;5001454;28;20351;-66
2021/06/27 14:17:09;;;;;;;2.65;2.45;;;;;;;;;;5018183;28;20044;-67
2021/06/27 14:19:35;;;;;;;2.70;2.50;;;;;;;;;;5000086;28;20057;-65
2021/06/27 14:22:00;;;;;;;2.78;2.20;;;;;;;;;;5004365;28;20036;-64
2021/06/27 14:24:26;;;;;;;2.30;2.17;;;;;;;;;;5001614;28;20049;-64
2021/06/27 14:26:58;;;;;;;3.92;2.60;;;;;;;;;;5003320;28;20026;-64
2021/06/27 14:29:23;;;;;;;2.60;2.38;;;;;;;;;;5002716;28;20507;-66
2021/06/27 14:31:49;;;;;;;3.28;2.55;;;;;;;;;;5005254;28;20033;-64
2021/06/27 14:34:14;;;;;;;2.60;2.40;;;;;;;;;;5002010;28;20034;-64
2021/06/27 14:36:40;;;;;;;3.00;2.70;;;;;;;;;;5002131;28;20034;-64
2021/06/27 14:39:05;;;;;;;2.45;2.25;;;;;;;;;;4998320;28;20069;-64
2021/06/27 14:41:31;;;;;;;2.90;2.45;;;;;;;;;;5000029;28;20034;-65
2021/06/27 14:43:56;;;;;;;2.67;2.47;;;;;;;;;;4999632;28;20026;-65